sensor_id;sensor_type;location;lat;lon;timestamp;P1;durP1;ratioP1;P2;durP2;ratioP2
39880;SDS011;25554;44.954;10.068;2023-04-24T00:02:48;4.88;;;2.28;;
39880;SDS011;25554;44.954;10.068;2023-04-24T00:05:16;3.03;;;2.30;;
39880;SDS011;25554;44.954;10.068;2023-04-24T00:07:43;4.13;;;2.47;;
39880;SDS011;25554;44.954;10.068;2023-04-24T00:10:10;4.25;;;2.97;;
39880;SDS011;25554;44.954;10.068;2023-04-24T00:12:37;3.92;;;2.80;;
39880;SDS011;25554;44.954;10.068;2023-04-24T00:15:04;4.60;;;3.05;;
39880;SDS011;25554;44.954;10.068;2023-04-24T00:17:31;5.82;;;3.55;;
39880;SDS011;25554;44.954;10.068;2023-04-24T00:22:24;15.85;;;4.60;;
39880;SDS011;25554;44.954;10.068;2023-04-24T00:24:51;5.40;;;3.10;;
39880;SDS011;25554;44.954;10.068;2023-04-24T00:29:44;7.35;;;3.13;;
39880;SDS011;25554;44.954;10.068;2023-04-24T00:34:37;4.82;;;2.80;;
39880;SDS011;25554;44.954;10.068;2023-04-24T00:37:03;5.10;;;2.95;;
39880;SDS011;25554;44.954;10.068;2023-04-24T00:39:30;4.05;;;2.75;;
39880;SDS011;25554;44.954;10.068;2023-04-24T00:41:57;5.95;;;3.28;;
39880;SDS011;25554;44.954;10.068;2023-04-24T00:44:24;8.73;;;3.50;;
39880;SDS011;25554;44.954;10.068;2023-04-24T00:46:51;4.35;;;3.30;;
39880;SDS011;25554;44.954;10.068;2023-04-24T00:49:21;5.53;;;3.35;;
39880;SDS011;25554;44.954;10.068;2023-04-24T00:51:47;5.47;;;3.22;;
39880;SDS011;25554;44.954;10.068;2023-04-24T00:54:15;4.88;;;2.75;;
39880;SDS011;25554;44.954;10.068;2023-04-24T00:56:42;3.83;;;2.72;;
39880;SDS011;25554;44.954;10.068;2023-04-24T00:59:09;4.28;;;3.85;;
39880;SDS011;25554;44.954;10.068;2023-04-24T01:04:02;3.60;;;2.42;;
39880;SDS011;25554;44.954;10.068;2023-04-24T01:06:29;4.60;;;3.15;;
39880;SDS011;25554;44.954;10.068;2023-04-24T01:08:57;7.93;;;3.22;;
39880;SDS011;25554;44.954;10.068;2023-04-24T01:11:25;6.85;;;3.28;;
39880;SDS011;25554;44.954;10.068;2023-04-24T01:13:51;7.93;;;3.95;;
39880;SDS011;25554;44.954;10.068;2023-04-24T01:16:18;8.45;;;5.25;;
39880;SDS011;25554;44.954;10.068;2023-04-24T01:18:48;8.25;;;5.43;;
39880;SDS011;25554;44.954;10.068;2023-04-24T01:23:45;8.43;;;5.60;;
39880;SDS011;25554;44.954;10.068;2023-04-24T01:26:12;8.90;;;5.50;;
39880;SDS011;25554;44.954;10.068;2023-04-24T01:28:39;8.57;;;5.80;;
39880;SDS011;25554;44.954;10.068;2023-04-24T01:31:06;7.88;;;5.78;;
39880;SDS011;25554;44.954;10.068;2023-04-24T01:35:59;10.57;;;5.75;;
39880;SDS011;25554;44.954;10.068;2023-04-24T01:38:26;6.75;;;5.38;;
39880;SDS011;25554;44.954;10.068;2023-04-24T01:43:19;7.80;;;5.57;;
39880;SDS011;25554;44.954;10.068;2023-04-24T01:48:12;9.95;;;6.35;;
39880;SDS011;25554;44.954;10.068;2023-04-24T01:50:38;8.82;;;6.43;;
39880;SDS011;25554;44.954;10.068;2023-04-24T01:55:31;8.38;;;6.10;;
39880;SDS011;25554;44.954;10.068;2023-04-24T02:00:25;9.38;;;6.32;;
39880;SDS011;25554;44.954;10.068;2023-04-24T02:02:52;10.07;;;7.07;;
39880;SDS011;25554;44.954;10.068;2023-04-24T02:05:19;11.25;;;7.05;;
39880;SDS011;25554;44.954;10.068;2023-04-24T02:07:45;12.82;;;7.53;;
39880;SDS011;25554;44.954;10.068;2023-04-24T02:10:12;10.00;;;7.22;;
39880;SDS011;25554;44.954;10.068;2023-04-24T02:12:42;8.52;;;7.60;;
39880;SDS011;25554;44.954;10.068;2023-04-24T02:15:08;8.20;;;7.25;;
39880;SDS011;25554;44.954;10.068;2023-04-24T02:17:36;9.98;;;7.50;;
39880;SDS011;25554;44.954;10.068;2023-04-24T02:20:04;11.90;;;7.38;;
39880;SDS011;25554;44.954;10.068;2023-04-24T02:22:31;16.13;;;7.63;;
39880;SDS011;25554;44.954;10.068;2023-04-24T02:25:01;11.48;;;7.18;;
39880;SDS011;25554;44.954;10.068;2023-04-24T02:27:27;11.02;;;7.40;;
39880;SDS011;25554;44.954;10.068;2023-04-24T02:32:20;13.13;;;8.13;;
39880;SDS011;25554;44.954;10.068;2023-04-24T02:37:13;11.05;;;7.53;;
39880;SDS011;25554;44.954;10.068;2023-04-24T02:42:06;12.30;;;7.82;;
39880;SDS011;25554;44.954;10.068;2023-04-24T02:44:34;9.80;;;7.63;;
39880;SDS011;25554;44.954;10.068;2023-04-24T02:47:01;11.88;;;8.77;;
39880;SDS011;25554;44.954;10.068;2023-04-24T02:49:27;15.48;;;8.90;;
39880;SDS011;25554;44.954;10.068;2023-04-24T02:54:20;26.67;;;9.63;;
39880;SDS011;25554;44.954;10.068;2023-04-24T02:59:13;11.07;;;7.43;;
39880;SDS011;25554;44.954;10.068;2023-04-24T03:01:39;10.45;;;7.78;;
39880;SDS011;25554;44.954;10.068;2023-04-24T03:06:32;10.85;;;7.93;;
39880;SDS011;25554;44.954;10.068;2023-04-24T03:09:01;9.38;;;8.38;;
39880;SDS011;25554;44.954;10.068;2023-04-24T03:11:28;13.10;;;8.38;;
39880;SDS011;25554;44.954;10.068;2023-04-24T03:16:21;10.20;;;8.15;;
39880;SDS011;25554;44.954;10.068;2023-04-24T03:21:14;11.80;;;9.03;;
39880;SDS011;25554;44.954;10.068;2023-04-24T03:23:42;13.05;;;9.13;;
39880;SDS011;25554;44.954;10.068;2023-04-24T03:26:09;12.18;;;9.00;;
39880;SDS011;25554;44.954;10.068;2023-04-24T03:28:41;11.75;;;10.07;;
39880;SDS011;25554;44.954;10.068;2023-04-24T03:31:08;19.83;;;8.88;;
39880;SDS011;25554;44.954;10.068;2023-04-24T03:33:36;16.27;;;10.25;;
39880;SDS011;25554;44.954;10.068;2023-04-24T03:36:03;15.00;;;9.57;;
39880;SDS011;25554;44.954;10.068;2023-04-24T03:38:36;14.07;;;10.40;;
39880;SDS011;25554;44.954;10.068;2023-04-24T03:41:18;13.48;;;9.93;;
39880;SDS011;25554;44.954;10.068;2023-04-24T03:43:50;16.17;;;9.00;;
39880;SDS011;25554;44.954;10.068;2023-04-24T03:46:17;12.80;;;8.90;;
39880;SDS011;25554;44.954;10.068;2023-04-24T03:48:50;12.18;;;9.05;;
39880;SDS011;25554;44.954;10.068;2023-04-24T03:51:19;13.65;;;10.30;;
39880;SDS011;25554;44.954;10.068;2023-04-24T03:53:50;14.18;;;9.05;;
39880;SDS011;25554;44.954;10.068;2023-04-24T03:56:19;14.98;;;11.10;;
39880;SDS011;25554;44.954;10.068;2023-04-24T03:58:46;14.95;;;10.90;;
39880;SDS011;25554;44.954;10.068;2023-04-24T04:01:13;15.05;;;10.57;;
39880;SDS011;25554;44.954;10.068;2023-04-24T04:03:58;12.82;;;10.32;;
39880;SDS011;25554;44.954;10.068;2023-04-24T04:06:26;14.70;;;9.98;;
39880;SDS011;25554;44.954;10.068;2023-04-24T04:08:56;12.68;;;10.07;;
39880;SDS011;25554;44.954;10.068;2023-04-24T04:11:23;13.68;;;9.90;;
39880;SDS011;25554;44.954;10.068;2023-04-24T04:13:50;14.10;;;10.45;;
39880;SDS011;25554;44.954;10.068;2023-04-24T04:16:19;13.85;;;10.07;;
39880;SDS011;25554;44.954;10.068;2023-04-24T04:18:48;13.02;;;9.98;;
39880;SDS011;25554;44.954;10.068;2023-04-24T04:21:15;13.15;;;10.23;;
39880;SDS011;25554;44.954;10.068;2023-04-24T04:23:42;12.10;;;10.30;;
39880;SDS011;25554;44.954;10.068;2023-04-24T04:26:19;12.02;;;9.38;;
39880;SDS011;25554;44.954;10.068;2023-04-24T04:29:07;13.00;;;10.18;;
39880;SDS011;25554;44.954;10.068;2023-04-24T04:31:38;14.25;;;10.82;;
39880;SDS011;25554;44.954;10.068;2023-04-24T04:34:09;16.85;;;12.00;;
39880;SDS011;25554;44.954;10.068;2023-04-24T04:36:38;17.10;;;11.35;;
39880;SDS011;25554;44.954;10.068;2023-04-24T04:39:31;17.70;;;11.60;;
39880;SDS011;25554;44.954;10.068;2023-04-24T04:42:07;13.63;;;11.00;;
39880;SDS011;25554;44.954;10.068;2023-04-24T04:44:40;17.00;;;11.32;;
39880;SDS011;25554;44.954;10.068;2023-04-24T04:47:09;17.77;;;11.98;;
39880;SDS011;25554;44.954;10.068;2023-04-24T04:49:37;15.85;;;11.88;;
39880;SDS011;25554;44.954;10.068;2023-04-24T04:52:09;15.95;;;12.65;;
39880;SDS011;25554;44.954;10.068;2023-04-24T04:54:35;17.75;;;12.55;;
39880;SDS011;25554;44.954;10.068;2023-04-24T04:59:29;16.35;;;12.63;;
39880;SDS011;25554;44.954;10.068;2023-04-24T05:02:02;19.20;;;12.68;;
39880;SDS011;25554;44.954;10.068;2023-04-24T05:04:29;17.50;;;13.10;;
39880;SDS011;25554;44.954;10.068;2023-04-24T05:06:57;16.23;;;12.52;;
39880;SDS011;25554;44.954;10.068;2023-04-24T05:09:24;15.60;;;12.75;;
39880;SDS011;25554;44.954;10.068;2023-04-24T05:11:56;17.17;;;13.27;;
39880;SDS011;25554;44.954;10.068;2023-04-24T05:14:23;14.50;;;12.93;;
39880;SDS011;25554;44.954;10.068;2023-04-24T05:16:51;13.75;;;11.30;;
39880;SDS011;25554;44.954;10.068;2023-04-24T05:19:22;15.25;;;12.00;;
39880;SDS011;25554;44.954;10.068;2023-04-24T05:21:49;14.50;;;11.32;;
39880;SDS011;25554;44.954;10.068;2023-04-24T05:24:16;12.93;;;10.90;;
39880;SDS011;25554;44.954;10.068;2023-04-24T05:27:06;13.43;;;11.23;;
39880;SDS011;25554;44.954;10.068;2023-04-24T05:29:39;18.65;;;13.10;;
39880;SDS011;25554;44.954;10.068;2023-04-24T05:32:07;18.30;;;12.63;;
39880;SDS011;25554;44.954;10.068;2023-04-24T05:34:34;15.82;;;12.50;;
39880;SDS011;25554;44.954;10.068;2023-04-24T05:37:01;15.95;;;11.75;;
39880;SDS011;25554;44.954;10.068;2023-04-24T05:39:27;18.70;;;11.40;;
39880;SDS011;25554;44.954;10.068;2023-04-24T05:41:54;15.55;;;11.30;;
39880;SDS011;25554;44.954;10.068;2023-04-24T05:44:23;15.52;;;10.88;;
39880;SDS011;25554;44.954;10.068;2023-04-24T05:46:50;12.15;;;10.60;;
39880;SDS011;25554;44.954;10.068;2023-04-24T05:49:16;16.02;;;10.77;;
39880;SDS011;25554;44.954;10.068;2023-04-24T05:51:44;15.50;;;11.23;;
39880;SDS011;25554;44.954;10.068;2023-04-24T05:56:38;13.43;;;10.80;;
39880;SDS011;25554;44.954;10.068;2023-04-24T05:59:06;17.13;;;12.15;;
39880;SDS011;25554;44.954;10.068;2023-04-24T06:01:33;15.15;;;10.93;;
39880;SDS011;25554;44.954;10.068;2023-04-24T06:04:10;16.35;;;11.80;;
39880;SDS011;25554;44.954;10.068;2023-04-24T06:06:38;15.35;;;11.52;;
39880;SDS011;25554;44.954;10.068;2023-04-24T06:09:04;16.33;;;12.13;;
39880;SDS011;25554;44.954;10.068;2023-04-24T06:13:57;16.55;;;12.05;;
39880;SDS011;25554;44.954;10.068;2023-04-24T06:16:50;16.73;;;12.38;;
39880;SDS011;25554;44.954;10.068;2023-04-24T06:19:32;17.05;;;12.65;;
39880;SDS011;25554;44.954;10.068;2023-04-24T06:21:59;14.77;;;12.32;;
39880;SDS011;25554;44.954;10.068;2023-04-24T06:24:29;19.42;;;12.50;;
39880;SDS011;25554;44.954;10.068;2023-04-24T06:26:55;16.48;;;12.15;;
39880;SDS011;25554;44.954;10.068;2023-04-24T06:29:24;17.15;;;12.50;;
39880;SDS011;25554;44.954;10.068;2023-04-24T06:34:17;15.32;;;11.95;;
39880;SDS011;25554;44.954;10.068;2023-04-24T06:39:09;14.02;;;11.75;;
39880;SDS011;25554;44.954;10.068;2023-04-24T06:44:02;14.05;;;11.40;;
39880;SDS011;25554;44.954;10.068;2023-04-24T06:48:55;15.95;;;12.27;;
39880;SDS011;25554;44.954;10.068;2023-04-24T06:53:51;15.70;;;11.45;;
39880;SDS011;25554;44.954;10.068;2023-04-24T06:56:19;17.70;;;11.68;;
39880;SDS011;25554;44.954;10.068;2023-04-24T06:58:46;15.07;;;11.10;;
39880;SDS011;25554;44.954;10.068;2023-04-24T07:01:12;12.50;;;10.00;;
39880;SDS011;25554;44.954;10.068;2023-04-24T07:03:39;10.52;;;9.10;;
39880;SDS011;25554;44.954;10.068;2023-04-24T07:06:05;14.23;;;10.07;;
39880;SDS011;25554;44.954;10.068;2023-04-24T07:08:32;11.43;;;9.10;;
39880;SDS011;25554;44.954;10.068;2023-04-24T07:10:59;13.20;;;9.25;;
39880;SDS011;25554;44.954;10.068;2023-04-24T07:13:26;11.10;;;8.70;;
39880;SDS011;25554;44.954;10.068;2023-04-24T07:15:53;14.63;;;9.02;;
39880;SDS011;25554;44.954;10.068;2023-04-24T07:18:21;11.10;;;9.27;;
39880;SDS011;25554;44.954;10.068;2023-04-24T07:25:42;10.68;;;8.90;;
39880;SDS011;25554;44.954;10.068;2023-04-24T07:28:09;11.45;;;8.65;;
39880;SDS011;25554;44.954;10.068;2023-04-24T07:30:36;9.13;;;7.32;;
39880;SDS011;25554;44.954;10.068;2023-04-24T07:33:02;10.30;;;8.25;;
39880;SDS011;25554;44.954;10.068;2023-04-24T07:35:29;7.93;;;6.95;;
39880;SDS011;25554;44.954;10.068;2023-04-24T07:37:55;9.75;;;8.23;;
39880;SDS011;25554;44.954;10.068;2023-04-24T07:40:22;9.75;;;8.63;;
39880;SDS011;25554;44.954;10.068;2023-04-24T07:42:49;9.77;;;7.95;;
39880;SDS011;25554;44.954;10.068;2023-04-24T07:45:15;9.07;;;8.02;;
39880;SDS011;25554;44.954;10.068;2023-04-24T07:47:42;10.15;;;8.48;;
39880;SDS011;25554;44.954;10.068;2023-04-24T07:50:11;10.73;;;8.60;;
39880;SDS011;25554;44.954;10.068;2023-04-24T07:52:41;12.40;;;8.63;;
39880;SDS011;25554;44.954;10.068;2023-04-24T07:55:07;10.73;;;8.75;;
39880;SDS011;25554;44.954;10.068;2023-04-24T07:57:34;11.43;;;8.60;;
39880;SDS011;25554;44.954;10.068;2023-04-24T08:00:02;15.02;;;9.52;;
39880;SDS011;25554;44.954;10.068;2023-04-24T08:02:37;10.57;;;9.48;;
39880;SDS011;25554;44.954;10.068;2023-04-24T08:05:03;11.43;;;9.00;;
39880;SDS011;25554;44.954;10.068;2023-04-24T08:07:31;10.18;;;8.77;;
39880;SDS011;25554;44.954;10.068;2023-04-24T08:09:57;12.50;;;7.80;;
39880;SDS011;25554;44.954;10.068;2023-04-24T08:12:24;17.45;;;9.68;;
39880;SDS011;25554;44.954;10.068;2023-04-24T08:14:51;10.35;;;8.75;;
39880;SDS011;25554;44.954;10.068;2023-04-24T08:19:46;15.15;;;11.32;;
39880;SDS011;25554;44.954;10.068;2023-04-24T08:22:16;15.35;;;11.20;;
39880;SDS011;25554;44.954;10.068;2023-04-24T08:24:43;15.63;;;10.50;;
39880;SDS011;25554;44.954;10.068;2023-04-24T08:27:09;15.27;;;9.82;;
39880;SDS011;25554;44.954;10.068;2023-04-24T08:29:36;12.95;;;10.00;;
39880;SDS011;25554;44.954;10.068;2023-04-24T08:34:29;14.50;;;9.55;;
39880;SDS011;25554;44.954;10.068;2023-04-24T08:39:21;12.38;;;8.23;;
39880;SDS011;25554;44.954;10.068;2023-04-24T08:44:14;15.02;;;8.82;;
39880;SDS011;25554;44.954;10.068;2023-04-24T08:46:43;26.85;;;15.95;;
39880;SDS011;25554;44.954;10.068;2023-04-24T08:49:13;10.57;;;8.65;;
39880;SDS011;25554;44.954;10.068;2023-04-24T08:51:43;9.18;;;8.13;;
39880;SDS011;25554;44.954;10.068;2023-04-24T08:54:11;11.57;;;9.25;;
39880;SDS011;25554;44.954;10.068;2023-04-24T08:56:38;10.32;;;8.55;;
39880;SDS011;25554;44.954;10.068;2023-04-24T08:59:09;9.73;;;8.57;;
39880;SDS011;25554;44.954;10.068;2023-04-24T09:01:37;12.00;;;10.23;;
39880;SDS011;25554;44.954;10.068;2023-04-24T09:04:05;11.98;;;10.45;;
39880;SDS011;25554;44.954;10.068;2023-04-24T09:06:33;14.30;;;10.48;;
39880;SDS011;25554;44.954;10.068;2023-04-24T09:09:00;11.52;;;10.00;;
39880;SDS011;25554;44.954;10.068;2023-04-24T09:11:27;15.02;;;10.23;;
39880;SDS011;25554;44.954;10.068;2023-04-24T09:16:21;10.23;;;9.23;;
39880;SDS011;25554;44.954;10.068;2023-04-24T09:18:49;10.63;;;9.52;;
39880;SDS011;25554;44.954;10.068;2023-04-24T09:21:16;13.90;;;9.80;;
39880;SDS011;25554;44.954;10.068;2023-04-24T09:26:09;10.95;;;9.13;;
39880;SDS011;25554;44.954;10.068;2023-04-24T09:28:37;10.23;;;9.15;;
39880;SDS011;25554;44.954;10.068;2023-04-24T09:31:15;12.20;;;10.40;;
39880;SDS011;25554;44.954;10.068;2023-04-24T09:34:03;10.30;;;8.13;;
39880;SDS011;25554;44.954;10.068;2023-04-24T09:36:36;12.25;;;9.35;;
39880;SDS011;25554;44.954;10.068;2023-04-24T09:39:11;10.15;;;8.98;;
39880;SDS011;25554;44.954;10.068;2023-04-24T09:41:55;9.05;;;8.20;;
39880;SDS011;25554;44.954;10.068;2023-04-24T09:44:26;13.73;;;8.73;;
39880;SDS011;25554;44.954;10.068;2023-04-24T09:46:54;9.00;;;8.10;;
39880;SDS011;25554;44.954;10.068;2023-04-24T09:49:25;9.32;;;7.57;;
39880;SDS011;25554;44.954;10.068;2023-04-24T09:51:52;10.93;;;8.18;;
39880;SDS011;25554;44.954;10.068;2023-04-24T09:54:28;11.20;;;8.45;;
39880;SDS011;25554;44.954;10.068;2023-04-24T09:56:55;11.25;;;8.85;;
39880;SDS011;25554;44.954;10.068;2023-04-24T09:59:22;8.88;;;7.85;;
39880;SDS011;25554;44.954;10.068;2023-04-24T10:01:49;10.50;;;8.55;;
39880;SDS011;25554;44.954;10.068;2023-04-24T10:04:20;9.25;;;7.95;;
39880;SDS011;25554;44.954;10.068;2023-04-24T10:06:47;10.15;;;8.45;;
39880;SDS011;25554;44.954;10.068;2023-04-24T10:09:17;11.40;;;9.00;;
39880;SDS011;25554;44.954;10.068;2023-04-24T10:11:45;14.98;;;10.20;;
39880;SDS011;25554;44.954;10.068;2023-04-24T10:14:16;12.55;;;10.68;;
39880;SDS011;25554;44.954;10.068;2023-04-24T10:16:43;11.15;;;9.27;;
39880;SDS011;25554;44.954;10.068;2023-04-24T10:19:12;10.52;;;9.43;;
39880;SDS011;25554;44.954;10.068;2023-04-24T10:21:40;10.35;;;9.18;;
39880;SDS011;25554;44.954;10.068;2023-04-24T10:24:18;10.40;;;8.77;;
39880;SDS011;25554;44.954;10.068;2023-04-24T10:26:46;10.73;;;9.63;;
39880;SDS011;25554;44.954;10.068;2023-04-24T10:29:14;9.15;;;8.18;;
39880;SDS011;25554;44.954;10.068;2023-04-24T10:31:41;8.75;;;7.25;;
39880;SDS011;25554;44.954;10.068;2023-04-24T10:34:10;8.68;;;7.32;;
39880;SDS011;25554;44.954;10.068;2023-04-24T10:36:41;10.52;;;8.07;;
39880;SDS011;25554;44.954;10.068;2023-04-24T10:39:09;9.93;;;8.93;;
39880;SDS011;25554;44.954;10.068;2023-04-24T10:41:37;9.20;;;8.30;;
39880;SDS011;25554;44.954;10.068;2023-04-24T10:44:04;9.18;;;7.72;;
39880;SDS011;25554;44.954;10.068;2023-04-24T10:46:32;8.18;;;7.38;;
39880;SDS011;25554;44.954;10.068;2023-04-24T10:48:58;11.70;;;8.40;;
39880;SDS011;25554;44.954;10.068;2023-04-24T10:53:52;8.10;;;6.90;;
39880;SDS011;25554;44.954;10.068;2023-04-24T10:58:50;7.82;;;7.05;;
39880;SDS011;25554;44.954;10.068;2023-04-24T11:01:24;9.05;;;7.18;;
39880;SDS011;25554;44.954;10.068;2023-04-24T11:04:08;9.02;;;7.50;;
39880;SDS011;25554;44.954;10.068;2023-04-24T11:06:36;7.97;;;6.88;;
39880;SDS011;25554;44.954;10.068;2023-04-24T11:09:06;9.65;;;8.48;;
39880;SDS011;25554;44.954;10.068;2023-04-24T11:11:34;9.68;;;8.25;;
39880;SDS011;25554;44.954;10.068;2023-04-24T11:14:02;8.35;;;7.10;;
39880;SDS011;25554;44.954;10.068;2023-04-24T11:19:03;10.43;;;7.07;;
39880;SDS011;25554;44.954;10.068;2023-04-24T11:21:43;7.35;;;6.15;;
39880;SDS011;25554;44.954;10.068;2023-04-24T11:24:37;6.78;;;6.00;;
39880;SDS011;25554;44.954;10.068;2023-04-24T11:27:20;7.32;;;5.88;;
39880;SDS011;25554;44.954;10.068;2023-04-24T11:34:53;10.18;;;7.72;;
39880;SDS011;25554;44.954;10.068;2023-04-24T11:37:20;8.98;;;5.78;;
39880;SDS011;25554;44.954;10.068;2023-04-24T11:39:46;7.97;;;6.03;;
39880;SDS011;25554;44.954;10.068;2023-04-24T11:42:16;7.78;;;6.00;;
39880;SDS011;25554;44.954;10.068;2023-04-24T11:44:42;6.32;;;5.20;;
39880;SDS011;25554;44.954;10.068;2023-04-24T11:47:09;4.97;;;4.43;;
39880;SDS011;25554;44.954;10.068;2023-04-24T11:49:36;5.93;;;5.32;;
39880;SDS011;25554;44.954;10.068;2023-04-24T11:52:03;8.43;;;6.20;;
39880;SDS011;25554;44.954;10.068;2023-04-24T11:54:30;7.55;;;6.30;;
39880;SDS011;25554;44.954;10.068;2023-04-24T11:56:57;8.60;;;6.07;;
39880;SDS011;25554;44.954;10.068;2023-04-24T11:59:23;7.40;;;6.70;;
39880;SDS011;25554;44.954;10.068;2023-04-24T12:01:50;7.38;;;6.53;;
39880;SDS011;25554;44.954;10.068;2023-04-24T12:09:28;6.53;;;5.13;;
39880;SDS011;25554;44.954;10.068;2023-04-24T12:11:55;5.53;;;4.72;;
39880;SDS011;25554;44.954;10.068;2023-04-24T12:14:25;5.93;;;3.90;;
39880;SDS011;25554;44.954;10.068;2023-04-24T12:19:21;4.70;;;4.32;;
39880;SDS011;25554;44.954;10.068;2023-04-24T12:22:04;4.57;;;3.97;;
39880;SDS011;25554;44.954;10.068;2023-04-24T12:24:31;2.70;;;2.50;;
39880;SDS011;25554;44.954;10.068;2023-04-24T12:26:58;2.28;;;1.92;;
39880;SDS011;25554;44.954;10.068;2023-04-24T12:29:26;3.38;;;2.38;;
39880;SDS011;25554;44.954;10.068;2023-04-24T12:31:53;2.38;;;1.85;;
39880;SDS011;25554;44.954;10.068;2023-04-24T12:34:21;3.28;;;2.88;;
39880;SDS011;25554;44.954;10.068;2023-04-24T12:36:48;3.67;;;2.95;;
39880;SDS011;25554;44.954;10.068;2023-04-24T12:39:17;5.30;;;3.10;;
39880;SDS011;25554;44.954;10.068;2023-04-24T12:41:57;4.40;;;3.70;;
39880;SDS011;25554;44.954;10.068;2023-04-24T12:46:57;4.05;;;2.30;;
39880;SDS011;25554;44.954;10.068;2023-04-24T12:49:24;3.85;;;3.20;;
39880;SDS011;25554;44.954;10.068;2023-04-24T12:54:17;2.88;;;2.60;;
39880;SDS011;25554;44.954;10.068;2023-04-24T12:56:43;3.20;;;2.38;;
39880;SDS011;25554;44.954;10.068;2023-04-24T12:59:10;17.92;;;8.02;;
39880;SDS011;25554;44.954;10.068;2023-04-24T13:01:36;5.28;;;3.00;;
39880;SDS011;25554;44.954;10.068;2023-04-24T13:04:04;4.18;;;3.80;;
39880;SDS011;25554;44.954;10.068;2023-04-24T13:06:31;3.65;;;3.30;;
39880;SDS011;25554;44.954;10.068;2023-04-24T13:08:58;2.42;;;2.22;;
39880;SDS011;25554;44.954;10.068;2023-04-24T13:11:24;3.42;;;1.90;;
39880;SDS011;25554;44.954;10.068;2023-04-24T13:13:51;1.83;;;1.67;;
39880;SDS011;25554;44.954;10.068;2023-04-24T13:16:18;3.22;;;2.90;;
39880;SDS011;25554;44.954;10.068;2023-04-24T13:18:44;4.45;;;3.00;;
39880;SDS011;25554;44.954;10.068;2023-04-24T13:21:11;3.70;;;2.72;;
39880;SDS011;25554;44.954;10.068;2023-04-24T13:23:37;3.63;;;2.95;;
39880;SDS011;25554;44.954;10.068;2023-04-24T13:26:04;3.72;;;2.83;;
39880;SDS011;25554;44.954;10.068;2023-04-24T13:28:30;2.30;;;2.10;;
39880;SDS011;25554;44.954;10.068;2023-04-24T13:30:57;2.97;;;2.67;;
39880;SDS011;25554;44.954;10.068;2023-04-24T13:33:23;2.97;;;1.95;;
39880;SDS011;25554;44.954;10.068;2023-04-24T13:35:50;2.13;;;2.03;;
39880;SDS011;25554;44.954;10.068;2023-04-24T13:38:16;1.73;;;1.40;;
39880;SDS011;25554;44.954;10.068;2023-04-24T13:40:43;0.50;;;0.50;;
39880;SDS011;25554;44.954;10.068;2023-04-24T13:43:09;0.75;;;0.75;;
39880;SDS011;25554;44.954;10.068;2023-04-24T13:45:36;1.67;;;1.05;;
39880;SDS011;25554;44.954;10.068;2023-04-24T13:48:03;1.40;;;1.30;;
39880;SDS011;25554;44.954;10.068;2023-04-24T13:50:29;2.97;;;1.10;;
39880;SDS011;25554;44.954;10.068;2023-04-24T13:52:56;1.13;;;0.98;;
39880;SDS011;25554;44.954;10.068;2023-04-24T13:55:22;0.28;;;0.10;;
39880;SDS011;25554;44.954;10.068;2023-04-24T13:57:49;0.10;;;0.10;;
39880;SDS011;25554;44.954;10.068;2023-04-24T14:00:17;0.38;;;0.38;;
39880;SDS011;25554;44.954;10.068;2023-04-24T14:02:44;2.65;;;0.50;;
39880;SDS011;25554;44.954;10.068;2023-04-24T14:05:12;0.73;;;0.70;;
39880;SDS011;25554;44.954;10.068;2023-04-24T14:07:42;0.82;;;0.60;;
39880;SDS011;25554;44.954;10.068;2023-04-24T14:10:09;0.40;;;0.40;;
39880;SDS011;25554;44.954;10.068;2023-04-24T14:12:35;0.35;;;0.35;;
39880;SDS011;25554;44.954;10.068;2023-04-24T14:15:03;2.92;;;0.77;;
39880;SDS011;25554;44.954;10.068;2023-04-24T14:17:30;1.80;;;0.70;;
39880;SDS011;25554;44.954;10.068;2023-04-24T14:22:25;1.65;;;0.40;;
39880;SDS011;25554;44.954;10.068;2023-04-24T14:27:17;0.55;;;0.30;;
39880;SDS011;25554;44.954;10.068;2023-04-24T14:29:44;1.08;;;0.40;;
39880;SDS011;25554;44.954;10.068;2023-04-24T14:32:10;0.38;;;0.35;;
39880;SDS011;25554;44.954;10.068;2023-04-24T14:34:37;0.35;;;0.20;;
39880;SDS011;25554;44.954;10.068;2023-04-24T14:37:03;0.25;;;0.25;;
39880;SDS011;25554;44.954;10.068;2023-04-24T14:41:56;0.30;;;0.20;;
39880;SDS011;25554;44.954;10.068;2023-04-24T14:44:23;1.77;;;0.10;;
39880;SDS011;25554;44.954;10.068;2023-04-24T14:46:49;0.30;;;0.20;;
39880;SDS011;25554;44.954;10.068;2023-04-24T14:49:16;0.10;;;0.10;;
39880;SDS011;25554;44.954;10.068;2023-04-24T14:51:42;0.13;;;0.10;;
39880;SDS011;25554;44.954;10.068;2023-04-24T14:56:35;0.40;;;0.20;;
39880;SDS011;25554;44.954;10.068;2023-04-24T15:01:28;0.43;;;0.20;;
39880;SDS011;25554;44.954;10.068;2023-04-24T15:03:54;0.25;;;0.20;;
39880;SDS011;25554;44.954;10.068;2023-04-24T15:06:21;2.35;;;0.20;;
39880;SDS011;25554;44.954;10.068;2023-04-24T15:08:47;2.72;;;0.40;;
39880;SDS011;25554;44.954;10.068;2023-04-24T15:11:14;2.15;;;0.17;;
39880;SDS011;25554;44.954;10.068;2023-04-24T15:13:41;0.10;;;0.10;;
39880;SDS011;25554;44.954;10.068;2023-04-24T15:16:07;5.18;;;1.45;;
39880;SDS011;25554;44.954;10.068;2023-04-24T15:18:34;0.95;;;0.85;;
39880;SDS011;25554;44.954;10.068;2023-04-24T15:21:00;2.47;;;0.30;;
39880;SDS011;25554;44.954;10.068;2023-04-24T15:23:27;0.30;;;0.10;;
39880;SDS011;25554;44.954;10.068;2023-04-24T15:25:53;0.20;;;0.10;;
39880;SDS011;25554;44.954;10.068;2023-04-24T15:28:20;0.00;;;0.00;;
39880;SDS011;25554;44.954;10.068;2023-04-24T15:30:47;2.35;;;0.10;;
39880;SDS011;25554;44.954;10.068;2023-04-24T15:33:13;0.50;;;0.20;;
39880;SDS011;25554;44.954;10.068;2023-04-24T15:35:40;0.00;;;0.00;;
39880;SDS011;25554;44.954;10.068;2023-04-24T15:38:07;0.40;;;0.20;;
39880;SDS011;25554;44.954;10.068;2023-04-24T15:40:33;2.20;;;0.17;;
39880;SDS011;25554;44.954;10.068;2023-04-24T15:43:00;1.85;;;0.55;;
39880;SDS011;25554;44.954;10.068;2023-04-24T15:45:26;0.88;;;0.25;;
39880;SDS011;25554;44.954;10.068;2023-04-24T15:47:53;1.30;;;0.20;;
39880;SDS011;25554;44.954;10.068;2023-04-24T15:50:20;0.17;;;0.13;;
39880;SDS011;25554;44.954;10.068;2023-04-24T15:52:47;0.32;;;0.10;;
39880;SDS011;25554;44.954;10.068;2023-04-24T15:55:13;1.02;;;0.30;;
39880;SDS011;25554;44.954;10.068;2023-04-24T15:57:40;0.43;;;0.20;;
39880;SDS011;25554;44.954;10.068;2023-04-24T16:00:08;2.55;;;0.40;;
39880;SDS011;25554;44.954;10.068;2023-04-24T16:02:38;1.02;;;0.93;;
39880;SDS011;25554;44.954;10.068;2023-04-24T16:05:05;0.80;;;0.30;;
39880;SDS011;25554;44.954;10.068;2023-04-24T16:07:32;0.30;;;0.30;;
39880;SDS011;25554;44.954;10.068;2023-04-24T16:09:59;0.15;;;0.15;;
39880;SDS011;25554;44.954;10.068;2023-04-24T16:12:26;0.20;;;0.20;;
39880;SDS011;25554;44.954;10.068;2023-04-24T16:14:53;1.90;;;0.57;;
39880;SDS011;25554;44.954;10.068;2023-04-24T16:17:19;0.35;;;0.32;;
39880;SDS011;25554;44.954;10.068;2023-04-24T16:19:46;0.50;;;0.50;;
39880;SDS011;25554;44.954;10.068;2023-04-24T16:22:12;0.22;;;0.20;;
39880;SDS011;25554;44.954;10.068;2023-04-24T16:24:39;0.30;;;0.20;;
39880;SDS011;25554;44.954;10.068;2023-04-24T16:27:05;0.60;;;0.20;;
39880;SDS011;25554;44.954;10.068;2023-04-24T16:29:32;0.10;;;0.10;;
39880;SDS011;25554;44.954;10.068;2023-04-24T16:31:59;2.05;;;0.28;;
39880;SDS011;25554;44.954;10.068;2023-04-24T16:34:25;0.52;;;0.20;;